createdAt,value
2022-08-30T00:03:49.189Z,2
2022-08-30T00:09:24.923Z,2
2022-08-30T00:14:59.813Z,0
2022-08-30T00:20:34.700Z,0
2022-08-30T00:26:09.860Z,0
2022-08-30T00:31:45.697Z,3
2022-08-30T00:37:20.413Z,0
2022-08-30T00:43:20.578Z,0
2022-08-30T00:48:53.270Z,2
2022-08-30T00:54:36.808Z,0
2022-08-30T01:00:11.688Z,0
2022-08-30T01:05:46.650Z,0
2022-08-30T01:11:21.484Z,0
2022-08-30T01:16:57.419Z,2
2022-08-30T01:22:32.467Z,10
2022-08-30T01:28:10.249Z,0
2022-08-30T01:33:46.503Z,2
2022-08-30T01:39:21.155Z,0
2022-08-30T01:44:56.016Z,2
2022-08-30T01:50:31.090Z,0
2022-08-30T01:56:05.718Z,0
2022-08-30T02:01:41.640Z,0
2022-08-30T02:07:17.859Z,2
2022-08-30T02:12:52.716Z,2
2022-08-30T02:18:48.619Z,4
2022-08-30T02:24:23.573Z,0
2022-08-30T02:29:59.455Z,4
2022-08-30T02:35:34.204Z,6
2022-08-30T02:41:08.925Z,2
2022-08-30T02:46:43.767Z,4
2022-08-30T02:52:28.124Z,4
2022-08-30T02:58:03.049Z,2
2022-08-30T03:03:37.931Z,4
2022-08-30T03:09:12.952Z,6
2022-08-30T03:14:47.895Z,4
2022-08-30T03:20:23.350Z,6
2022-08-30T03:25:58.141Z,2
2022-08-30T03:31:54.576Z,4
2022-08-30T03:37:29.669Z,8
2022-08-30T03:43:06.281Z,9
2022-08-30T03:48:41.967Z,8
2022-08-30T03:54:19.272Z,4
2022-08-30T03:59:54.138Z,8
2022-08-30T04:05:31.940Z,0
2022-08-30T04:11:09.713Z,6
2022-08-30T04:17:12.641Z,8
2022-08-30T04:22:55.356Z,9
2022-08-30T04:28:30.180Z,2
2022-08-30T04:34:05.254Z,8
2022-08-30T04:39:40.158Z,0
2022-08-30T04:45:15.139Z,4
2022-08-30T04:50:50.206Z,4
2022-08-30T04:56:25.827Z,6
2022-08-30T05:02:01.981Z,4
2022-08-30T05:07:38.810Z,6
2022-08-30T05:13:14.108Z,8
2022-08-30T05:18:48.975Z,12
2022-08-30T05:24:23.800Z,8
2022-08-30T05:30:00.010Z,4
2022-08-30T05:35:34.875Z,9
2022-08-30T05:41:12.096Z,4
2022-08-30T05:46:47.528Z,8
2022-08-30T05:52:22.557Z,0
2022-08-30T05:57:57.968Z,8
2022-08-30T06:03:32.801Z,10
2022-08-30T06:09:07.631Z,0
2022-08-30T06:14:44.306Z,8
2022-08-30T06:20:19.466Z,4
2022-08-30T06:25:54.192Z,4
2022-08-30T06:31:29.786Z,4
2022-08-30T06:37:05.224Z,0
2022-08-30T06:42:40.276Z,2
2022-08-30T06:48:15.105Z,4
2022-08-30T06:53:49.930Z,6
2022-08-30T06:59:24.742Z,14
2022-08-30T07:04:59.588Z,12
2022-08-30T07:10:34.816Z,8
2022-08-30T07:16:11.404Z,10
2022-08-30T07:21:46.603Z,8
2022-08-30T07:27:21.357Z,6
2022-08-30T07:32:56.658Z,10
2022-08-30T07:38:31.601Z,12
2022-08-30T07:44:06.866Z,8
2022-08-30T07:49:41.732Z,10
2022-08-30T07:55:16.564Z,6
2022-08-30T08:00:52.174Z,8
2022-08-30T08:06:35.758Z,6
2022-08-30T08:12:10.757Z,10
2022-08-30T08:17:45.374Z,8
2022-08-30T08:23:20.380Z,6
2022-08-30T08:28:55.282Z,6
2022-08-30T08:34:30.150Z,18
2022-08-30T08:40:05.807Z,4
2022-08-30T08:45:41.438Z,20
2022-08-30T08:51:16.275Z,22
2022-08-30T08:56:51.135Z,12
2022-08-30T09:02:25.923Z,8
2022-08-30T09:08:01.080Z,6
2022-08-30T09:13:36.760Z,6
2022-08-30T09:19:12.020Z,8
2022-08-30T09:24:46.956Z,14
2022-08-30T09:30:22.101Z,14
2022-08-30T09:35:57.067Z,10
2022-08-30T09:41:33.783Z,16
2022-08-30T09:47:09.759Z,17
2022-08-30T09:52:56.263Z,16
2022-08-30T09:58:31.192Z,16
2022-08-30T10:04:06.233Z,16
2022-08-30T10:09:41.146Z,16
2022-08-30T10:15:16.741Z,12
2022-08-30T10:20:51.756Z,12
2022-08-30T10:26:32.449Z,18
2022-08-30T10:32:07.327Z,8
2022-08-30T10:37:43.820Z,8
2022-08-30T10:43:19.818Z,16
2022-08-30T10:48:54.569Z,13
2022-08-30T10:54:29.834Z,20
2022-08-30T11:00:07.147Z,18
2022-08-30T11:05:42.919Z,16
2022-08-30T11:11:18.475Z,28
2022-08-30T11:16:53.459Z,26
2022-08-30T11:22:28.326Z,22
2022-08-30T11:28:03.164Z,6
2022-08-30T11:33:38.549Z,12
2022-08-30T11:39:14.149Z,16
2022-08-30T11:44:50.093Z,18
2022-08-30T11:50:27.406Z,24
2022-08-30T11:56:03.712Z,19
2022-08-30T12:01:57.464Z,14
2022-08-30T12:07:38.963Z,16
2022-08-30T12:13:19.999Z,16
2022-08-30T12:18:57.279Z,18
2022-08-30T12:24:37.427Z,10
2022-08-30T12:30:17.791Z,14
2022-08-30T12:35:55.039Z,10
2022-08-30T12:41:30.723Z,14
2022-08-30T12:47:07.141Z,17
2022-08-30T12:52:46.669Z,20
2022-08-30T12:58:23.225Z,14
2022-08-30T13:04:02.826Z,6
2022-08-30T13:09:37.747Z,16
2022-08-30T13:15:13.581Z,10
2022-08-30T13:20:48.563Z,12
2022-08-30T13:26:24.301Z,18
2022-08-30T13:32:03.273Z,12
2022-08-30T13:37:52.702Z,12
2022-08-30T13:43:30.860Z,6
2022-08-30T13:49:47.636Z,12
2022-08-30T13:55:24.219Z,12
2022-08-30T14:00:59.941Z,16
2022-08-30T14:07:11.740Z,12
2022-08-30T14:13:13.776Z,8
2022-08-30T14:18:51.103Z,10
2022-08-30T14:24:27.330Z,14
2022-08-30T14:30:02.551Z,6
2022-08-30T14:35:39.691Z,6
2022-08-30T14:41:14.540Z,10
2022-08-30T14:46:53.513Z,16
2022-08-30T14:52:45.878Z,10
2022-08-30T14:58:21.214Z,12
2022-08-30T15:04:00.709Z,10
2022-08-30T15:09:36.628Z,6
2022-08-30T15:15:14.822Z,8
2022-08-30T15:20:50.022Z,10
2022-08-30T15:26:24.903Z,8
2022-08-30T15:32:02.154Z,6
2022-08-30T15:37:38.437Z,12
2022-08-30T15:43:15.369Z,16
2022-08-30T15:49:07.636Z,16
2022-08-30T15:54:52.320Z,8
2022-08-30T16:00:51.867Z,16
2022-08-30T16:06:40.243Z,16
2022-08-30T16:12:31.874Z,16
2022-08-30T16:18:21.779Z,14
2022-08-30T16:24:15.064Z,12
2022-08-30T16:29:59.751Z,16
2022-08-30T16:35:46.589Z,12
2022-08-30T16:41:35.566Z,14
2022-08-30T16:47:15.669Z,16
2022-08-30T16:52:53.878Z,16
2022-08-30T16:58:29.139Z,16
2022-08-30T17:04:06.038Z,18
2022-08-30T17:09:41.510Z,6
2022-08-30T17:15:16.331Z,16
2022-08-30T17:20:52.882Z,16
2022-08-30T17:26:28.866Z,14
2022-08-30T17:32:05.014Z,10
2022-08-30T17:37:41.763Z,12
2022-08-30T17:43:18.400Z,10
2022-08-30T17:49:02.205Z,10
2022-08-30T17:54:36.984Z,30
2022-08-30T18:00:18.635Z,12
2022-08-30T18:05:57.078Z,6
2022-08-30T18:11:33.073Z,20
2022-08-30T18:17:09.355Z,10
2022-08-30T18:22:44.308Z,8
2022-08-30T18:28:20.938Z,22
2022-08-30T18:34:00.392Z,20
2022-08-30T18:39:35.725Z,12
2022-08-30T18:45:18.661Z,12
2022-08-30T18:50:53.630Z,18
2022-08-30T18:56:34.812Z,8
2022-08-30T19:02:13.124Z,16
2022-08-30T19:07:48.487Z,18
2022-08-30T19:13:25.073Z,14
2022-08-30T19:19:00.934Z,18
2022-08-30T19:24:37.688Z,12
2022-08-30T19:30:30.301Z,16
2022-08-30T19:36:05.644Z,24
2022-08-30T19:41:41.467Z,21
2022-08-30T19:47:16.595Z,16
2022-08-30T19:52:55.952Z,21
2022-08-30T19:58:30.808Z,24
2022-08-30T20:04:05.635Z,14
2022-08-30T20:09:41.477Z,20
2022-08-30T20:15:16.768Z,18
2022-08-30T20:20:52.364Z,14
2022-08-30T20:26:35.208Z,10
2022-08-30T20:32:11.275Z,14
2022-08-30T20:37:46.231Z,22
2022-08-30T20:43:21.980Z,26
2022-08-30T20:48:56.835Z,16
2022-08-30T20:54:31.768Z,24
2022-08-30T21:00:10.136Z,20
2022-08-30T21:05:44.903Z,18
2022-08-30T21:11:20.209Z,24
2022-08-30T21:16:56.595Z,26
2022-08-30T21:22:31.754Z,20
2022-08-30T21:28:06.574Z,18
2022-08-30T21:33:41.310Z,22
2022-08-30T21:39:16.379Z,24
2022-08-30T21:44:51.179Z,38
2022-08-30T21:50:26.099Z,26
2022-08-30T21:56:02.974Z,22
2022-08-30T22:01:39.166Z,26
2022-08-30T22:07:14.739Z,28
2022-08-30T22:12:51.075Z,28
2022-08-30T22:18:25.832Z,34
2022-08-30T22:24:06.678Z,28
2022-08-30T22:29:41.833Z,20
2022-08-30T22:35:16.608Z,32
2022-08-30T22:40:55.102Z,28
2022-08-30T22:46:35.733Z,26
2022-08-30T22:52:10.565Z,20
2022-08-30T22:57:45.813Z,34
2022-08-30T23:03:20.741Z,18
2022-08-30T23:08:55.583Z,36
2022-08-30T23:14:31.394Z,31
2022-08-30T23:20:06.202Z,16
2022-08-30T23:25:46.119Z,16
2022-08-30T23:31:27.692Z,26
2022-08-30T23:37:03.864Z,26
2022-08-30T23:42:38.820Z,33
2022-08-30T23:48:13.705Z,34
2022-08-30T23:53:49.728Z,31
2022-08-30T23:59:24.548Z,14
